Time;durP1;ratioP1;P1;durP2;ratioP2;P2;SDS_P1;SDS_P2;PMS_P1;PMS_P2;Temp;Humidity;BMP_temperature;BMP_pressure;BME280_temperature;BME280_humidity;BME280_pressure;Samples;Min_cycle;Max_cycle;Signal;HPM_P1;HPM_P2
2021/11/10 00:01:29;;;;;;;3.9;2.8;;;;;;;;;;;;;
2021/11/10 00:03:59;;;;;;;8.9;3.2;;;;;;;;;;;;;
2021/11/10 00:06:25;;;;;;;6.9;3.3;;;;;;;;;;;;;
2021/11/10 00:08:50;;;;;;;7.3;3.2;;;;;;;;;;;;;
2021/11/10 00:11:16;;;;;;;5.4;3.1;;;;;;;;;;;;;
2021/11/10 00:13:41;;;;;;;7;3.2;;;;;;;;;;;;;
2021/11/10 00:16:06;;;;;;;4.7;3.2;;;;;;;;;;;;;
2021/11/10 00:18:31;;;;;;;6.5;3.3;;;;;;;;;;;;;
2021/11/10 00:20:56;;;;;;;5.6;2.9;;;;;;;;;;;;;
2021/11/10 00:23:22;;;;;;;4.3;2.8;;;;;;;;;;;;;
2021/11/10 00:25:47;;;;;;;4.4;2.9;;;;;;;;;;;;;
2021/11/10 00:28:12;;;;;;;3.9;2.9;;;;;;;;;;;;;
2021/11/10 00:30:37;;;;;;;3.8;2.6;;;;;;;;;;;;;
2021/11/10 00:33:02;;;;;;;3;2.4;;;;;;;;;;;;;
2021/11/10 00:35:27;;;;;;;2.8;2.2;;;;;;;;;;;;;
2021/11/10 00:38:11;;;;;;;3.1;2.2;;;;;;;;;;;;;
2021/11/10 00:40:18;;;;;;;4.3;2.2;;;;;;;;;;;;;
2021/11/10 00:42:43;;;;;;;3.6;2.5;;;;;;;;;;;;;
2021/11/10 00:45:08;;;;;;;6.6;4;;;;;;;;;;;;;
2021/11/10 00:47:33;;;;;;;13;7;;;;;;;;;;;;;
2021/11/10 00:49:58;;;;;;;9.1;5.5;;;;;;;;;;;;;
2021/11/10 00:52:23;;;;;;;8.9;4.4;;;;;;;;;;;;;
2021/11/10 00:54:48;;;;;;;5.6;3.1;;;;;;;;;;;;;
2021/11/10 00:57:13;;;;;;;4.1;2.8;;;;;;;;;;;;;
2021/11/10 00:59:39;;;;;;;5.5;3.4;;;;;;;;;;;;;
2021/11/10 01:02:04;;;;;;;4.2;2.9;;;;;;;;;;;;;
2021/11/10 01:04:30;;;;;;;2.8;2.2;;;;;;;;;;;;;
2021/11/10 01:06:55;;;;;;;3.6;1.9;;;;;;;;;;;;;
2021/11/10 01:09:24;;;;;;;2.2;1.5;;;;;;;;;;;;;
2021/11/10 01:11:47;;;;;;;2.1;1.7;;;;;;;;;;;;;
2021/11/10 01:14:12;;;;;;;13.2;3.5;;;;;;;;;;;;;
2021/11/10 01:16:38;;;;;;;3.2;2.1;;;;;;;;;;;;;
2021/11/10 01:19:05;;;;;;;3.6;2.1;;;;;;;;;;;;;
2021/11/10 01:21:30;;;;;;;5.8;2.2;;;;;;;;;;;;;
2021/11/10 01:23:55;;;;;;;3.8;2.3;;;;;;;;;;;;;
2021/11/10 01:26:21;;;;;;;2.4;1.8;;;;;;;;;;;;;
2021/11/10 01:28:46;;;;;;;1.9;1.7;;;;;;;;;;;;;
2021/11/10 01:31:11;;;;;;;4.6;2.4;;;;;;;;;;;;;
2021/11/10 01:33:36;;;;;;;3.3;2.2;;;;;;;;;;;;;
2021/11/10 01:36:02;;;;;;;3.2;2;;;;;;;;;;;;;
2021/11/10 01:38:27;;;;;;;4;1.7;;;;;;;;;;;;;
2021/11/10 01:40:54;;;;;;;2;1.5;;;;;;;;;;;;;
2021/11/10 01:43:19;;;;;;;2.9;1.8;;;;;;;;;;;;;
2021/11/10 01:45:46;;;;;;;2.9;2.2;;;;;;;;;;;;;
2021/11/10 01:48:10;;;;;;;4.4;2.6;;;;;;;;;;;;;
2021/11/10 01:50:36;;;;;;;5;3;;;;;;;;;;;;;
2021/11/10 01:53:01;;;;;;;4.6;2.5;;;;;;;;;;;;;
2021/11/10 01:55:28;;;;;;;2.6;1.7;;;;;;;;;;;;;
2021/11/10 01:57:53;;;;;;;2.5;1.8;;;;;;;;;;;;;
2021/11/10 02:00:19;;;;;;;4.6;2.7;;;;;;;;;;;;;
2021/11/10 02:02:44;;;;;;;3.3;2.4;;;;;;;;;;;;;
2021/11/10 02:05:11;;;;;;;4.5;2.6;;;;;;;;;;;;;
2021/11/10 02:07:36;;;;;;;5.6;3;;;;;;;;;;;;;
2021/11/10 02:10:01;;;;;;;4.6;2.7;;;;;;;;;;;;;
2021/11/10 02:12:26;;;;;;;5.4;2.4;;;;;;;;;;;;;
2021/11/10 02:14:52;;;;;;;3.6;2.3;;;;;;;;;;;;;
2021/11/10 02:17:17;;;;;;;5;2.4;;;;;;;;;;;;;
2021/11/10 02:19:43;;;;;;;2.8;2;;;;;;;;;;;;;
2021/11/10 02:22:08;;;;;;;4.9;3;;;;;;;;;;;;;
2021/11/10 02:24:36;;;;;;;5.5;3;;;;;;;;;;;;;
2021/11/10 02:26:59;;;;;;;7.6;3.1;;;;;;;;;;;;;
2021/11/10 02:29:25;;;;;;;7.7;3.2;;;;;;;;;;;;;
2021/11/10 02:31:50;;;;;;;4.8;2.7;;;;;;;;;;;;;
2021/11/10 02:34:16;;;;;;;3.5;2.6;;;;;;;;;;;;;
2021/11/10 02:36:41;;;;;;;4.9;2.4;;;;;;;;;;;;;
2021/11/10 02:39:07;;;;;;;5.9;2.6;;;;;;;;;;;;;
2021/11/10 02:41:32;;;;;;;3.2;2.5;;;;;;;;;;;;;
2021/11/10 02:43:58;;;;;;;3.1;2.1;;;;;;;;;;;;;
2021/11/10 02:46:24;;;;;;;5.9;2.4;;;;;;;;;;;;;
2021/11/10 02:48:49;;;;;;;7.2;2.6;;;;;;;;;;;;;
2021/11/10 02:51:14;;;;;;;4.1;2.1;;;;;;;;;;;;;
2021/11/10 02:53:39;;;;;;;3;2;;;;;;;;;;;;;
2021/11/10 02:56:05;;;;;;;2.4;1.8;;;;;;;;;;;;;
2021/11/10 02:58:31;;;;;;;2.5;1.7;;;;;;;;;;;;;
2021/11/10 03:00:56;;;;;;;3.7;2;;;;;;;;;;;;;
2021/11/10 03:06:09;;;;;;;4.5;2.5;;;;;;;;;;;;;
2021/11/10 03:08:38;;;;;;;3.1;2.6;;;;;;;;;;;;;
2021/11/10 03:11:00;;;;;;;3.8;2.7;;;;;;;;;;;;;
2021/11/10 03:13:26;;;;;;;5.9;3.1;;;;;;;;;;;;;
2021/11/10 03:15:53;;;;;;;6.4;3.4;;;;;;;;;;;;;
2021/11/10 03:18:18;;;;;;;6;3.7;;;;;;;;;;;;;
2021/11/10 03:20:43;;;;;;;7.3;3.3;;;;;;;;;;;;;
2021/11/10 03:23:08;;;;;;;5.7;3.5;;;;;;;;;;;;;
2021/11/10 03:25:34;;;;;;;4.8;3.7;;;;;;;;;;;;;
2021/11/10 03:28:00;;;;;;;4.8;3.4;;;;;;;;;;;;;
2021/11/10 03:30:25;;;;;;;6.3;3.9;;;;;;;;;;;;;
2021/11/10 03:32:52;;;;;;;6.8;3.8;;;;;;;;;;;;;
2021/11/10 03:35:16;;;;;;;3.9;3.4;;;;;;;;;;;;;
2021/11/10 03:37:42;;;;;;;4.8;3.3;;;;;;;;;;;;;
2021/11/10 03:40:07;;;;;;;4.2;2.8;;;;;;;;;;;;;
2021/11/10 03:42:33;;;;;;;5.2;3.1;;;;;;;;;;;;;
2021/11/10 03:44:58;;;;;;;5.5;3.2;;;;;;;;;;;;;
2021/11/10 03:47:23;;;;;;;6.4;3.4;;;;;;;;;;;;;
2021/11/10 03:50:00;;;;;;;6.7;3.5;;;;;;;;;;;;;
2021/11/10 03:52:25;;;;;;;5.9;3.5;;;;;;;;;;;;;
2021/11/10 03:54:50;;;;;;;4.2;2.8;;;;;;;;;;;;;
2021/11/10 03:57:16;;;;;;;4.3;2.5;;;;;;;;;;;;;
2021/11/10 03:59:41;;;;;;;4.1;2.6;;;;;;;;;;;;;
2021/11/10 08:17:27;;;;;;;5;3.1;;;;;;;6.51;78.96484;944.0984;;;;
2021/11/10 08:21:11;;;;;;;13;6.6;;;;;;;6.82;78.41992;944.1044;;;;
2021/11/10 08:23:36;;;;;;;9.8;5.2;;;;;;;6.95;78.24316;944.0605;;;;
2021/11/10 08:26:05;;;;;;;7.6;4.7;;;;;;;6.64;79.52051;944.0175;;;;
2021/11/10 08:28:33;;;;;;;5.4;3.2;;;;;;;6.62;80.05859;943.8878;;;;
2021/11/10 08:30:58;;;;;;;6.9;3.3;;;;;;;6.96;79.06934;943.8215;;;;
2021/11/10 08:33:25;;;;;;;11.3;5.4;;;;;;;7.11;78.0332;943.928;;;;
2021/11/10 08:35:51;;;;;;;6.3;3.3;;;;;;;7.31;77.24219;943.8735;;;;
2021/11/10 08:38:17;;;;;;;8.5;3.4;;;;;;;7.54;76.50195;943.8674;;;;
2021/11/10 08:40:42;;;;;;;13.7;4.5;;;;;;;7.75;75.71094;943.842;;;;
2021/11/10 08:43:12;;;;;;;8.1;3.8;;;;;;;7.51;76.56348;943.7507;;;;
2021/11/10 08:45:36;;;;;;;12.2;4.6;;;;;;;7.36;77.42188;943.7103;;;;
2021/11/10 08:48:04;;;;;;;9.5;4.5;;;;;;;7.5;77.30957;943.8445;;;;
2021/11/10 08:50:28;;;;;;;6.4;2.6;;;;;;;7.59;76.0791;943.8496;;;;
2021/11/10 08:52:57;;;;;;;11;3.2;;;;;;;7.87;75.74316;943.8456;;;;
2021/11/10 08:55:22;;;;;;;6;3.4;;;;;;;8.13;75.84375;943.8507;;;;
2021/11/10 08:57:49;;;;;;;4.2;2.5;;;;;;;8.15;74.00977;943.7657;;;;
2021/11/10 09:00:14;;;;;;;9.8;3.5;;;;;;;8.39;73.9834;943.6824;;;;
2021/11/10 09:02:39;;;;;;;7.5;2.9;;;;;;;8.48;73.85059;943.7096;;;;
2021/11/10 09:05:08;;;;;;;10.5;3.3;;;;;;;8.82;73.89648;943.7623;;;;
2021/11/10 09:07:37;;;;;;;7.4;3.1;;;;;;;9.16;72.7041;943.7327;;;;
2021/11/10 09:09:59;;;;;;;4.7;3.3;;;;;;;9.43;72.37402;943.7679;;;;
2021/11/10 09:12:24;;;;;;;4.6;3.5;;;;;;;9.38;72.19531;943.7921;;;;
2021/11/10 09:14:53;;;;;;;7.3;3.2;;;;;;;9.28;70.69727;943.738;;;;
2021/11/10 09:17:19;;;;;;;8;3.6;;;;;;;9.29;72.22461;943.7764;;;;
2021/11/10 09:19:45;;;;;;;10.1;4.2;;;;;;;9.37;70.90527;943.7712;;;;
2021/11/10 09:22:11;;;;;;;8.1;3.7;;;;;;;9.52;69.24316;943.7247;;;;
2021/11/10 09:24:39;;;;;;;8.2;3.9;;;;;;;9.9;69.40723;943.7253;;;;
2021/11/10 09:27:14;;;;;;;8.3;3.5;;;;;;;10.17;68.20801;943.6827;;;;
2021/11/10 09:29:39;;;;;;;8;3.6;;;;;;;10.23;65.82129;943.6105;;;;
2021/11/10 09:32:04;;;;;;;13.7;3.9;;;;;;;10.39;66.69043;943.4852;;;;
2021/11/10 09:34:39;;;;;;;16.4;5.2;;;;;;;10.63;67.04785;943.5346;;;;
2021/11/10 09:37:04;;;;;;;11.9;5.1;;;;;;;10.9;67.08984;943.557;;;;
2021/11/10 09:39:28;;;;;;;7.8;3.3;;;;;;;11.09;67.49609;943.5891;;;;
2021/11/10 09:41:54;;;;;;;9.4;3.4;;;;;;;10.99;66.53223;943.4869;;;;
2021/11/10 09:44:20;;;;;;;7.8;3.7;;;;;;;10.79;68.75195;943.4802;;;;
2021/11/10 09:46:46;;;;;;;5.6;3.6;;;;;;;11;68.18945;943.5052;;;;
2021/11/10 09:49:13;;;;;;;15.1;4.2;;;;;;;11.12;68.14063;943.5203;;;;
2021/11/10 09:51:38;;;;;;;12.1;4.8;;;;;;;11.17;69.77148;943.5154;;;;
2021/11/10 09:54:03;;;;;;;8.5;3.4;;;;;;;11.16;69.33594;943.4523;;;;
2021/11/10 09:56:28;;;;;;;6.2;3.2;;;;;;;11.18;68.84668;943.4565;;;;
2021/11/10 09:58:53;;;;;;;5.5;3.6;;;;;;;11.04;68.28809;943.4752;;;;
2021/11/10 10:01:22;;;;;;;6.8;4;;;;;;;10.7;70.63281;943.5159;;;;
2021/11/10 10:03:51;;;;;;;8.4;3.4;;;;;;;10.76;70.82617;943.5122;;;;
2021/11/10 10:06:16;;;;;;;6.4;3.1;;;;;;;10.84;70.75879;943.5123;;;;
2021/11/10 10:08:48;;;;;;;12.4;4.1;;;;;;;10.88;70.5498;943.4086;;;;
2021/11/10 10:11:16;;;;;;;11.4;4.4;;;;;;;10.91;69.51367;943.4448;;;;
2021/11/10 10:13:41;;;;;;;19.6;7.1;;;;;;;10.93;69.19824;943.4214;;;;
2021/11/10 10:16:11;;;;;;;14.8;5.9;;;;;;;10.87;69.47266;943.4864;;;;
2021/11/10 10:18:37;;;;;;;9.2;5.3;;;;;;;10.82;69.95605;943.4227;;;;
2021/11/10 10:21:02;;;;;;;11.4;5.1;;;;;;;10.83;69.31641;943.4188;;;;
2021/11/10 10:23:27;;;;;;;10;4.7;;;;;;;10.82;69.07617;943.3208;;;;
2021/11/10 10:25:52;;;;;;;6;3.4;;;;;;;10.78;68.24805;943.2561;;;;
2021/11/10 10:28:17;;;;;;;7.5;3.4;;;;;;;10.76;67.57031;943.3162;;;;
2021/11/10 10:30:42;;;;;;;6.7;3.8;;;;;;;10.69;67.91309;943.2921;;;;
2021/11/10 10:33:07;;;;;;;8.9;3.7;;;;;;;10.62;68.41699;943.3458;;;;
2021/11/10 10:35:34;;;;;;;6.3;3.5;;;;;;;10.67;68.65234;943.2733;;;;
2021/11/10 10:38:00;;;;;;;5.8;3.3;;;;;;;10.79;68.68262;943.1758;;;;
2021/11/10 10:40:25;;;;;;;6.3;3.1;;;;;;;10.89;66.88086;943.0525;;;;
2021/11/10 10:42:50;;;;;;;5.3;2.9;;;;;;;10.71;68.79688;943.0662;;;;
2021/11/10 10:45:15;;;;;;;9;3.9;;;;;;;10.55;71.31738;943.0433;;;;
2021/11/10 10:47:42;;;;;;;4.7;3.5;;;;;;;10.66;71.38086;943.117;;;;
2021/11/10 10:50:07;;;;;;;12.9;5.5;;;;;;;10.8;71.18555;943.0103;;;;
2021/11/10 10:52:32;;;;;;;12.1;5.3;;;;;;;10.95;69.58789;942.9897;;;;
2021/11/10 10:55:10;;;;;;;8.1;4;;;;;;;11;68.97852;942.9188;;;;
2021/11/10 10:57:35;;;;;;;6.3;3.6;;;;;;;11.03;69.83008;942.8088;;;;
2021/11/10 11:00:00;;;;;;;5.4;3.7;;;;;;;11.17;68.74219;942.8555;;;;
2021/11/10 11:02:26;;;;;;;7.3;3.8;;;;;;;11.34;68.1875;942.9052;;;;
2021/11/10 11:04:52;;;;;;;8.5;3.8;;;;;;;11.48;67.54395;942.9097;;;;
2021/11/10 11:07:16;;;;;;;7.1;3.7;;;;;;;11.6;66.44238;942.7885;;;;
2021/11/10 11:09:42;;;;;;;10.5;5.3;;;;;;;11.34;66.84766;942.7274;;;;
2021/11/10 11:12:11;;;;;;;7.6;3.6;;;;;;;11.28;68.11914;942.8167;;;;
2021/11/10 11:14:41;;;;;;;8.4;4.1;;;;;;;11.19;67.69336;942.8636;;;;
2021/11/10 11:17:06;;;;;;;9.9;4;;;;;;;11.16;67.59961;942.7478;;;;
2021/11/10 11:19:23;;;;;;;5.4;3.9;;;;;;;11.19;67.88965;942.6892;;;;
2021/11/10 11:21:47;;;;;;;10;4.6;;;;;;;11.16;67.66602;942.7158;;;;
2021/11/10 11:24:13;;;;;;;9.1;5;;;;;;;10.82;69.08691;942.748;;;;
2021/11/10 11:26:38;;;;;;;9.3;4.7;;;;;;;10.76;70.24316;942.8472;;;;
2021/11/10 11:29:03;;;;;;;8.2;4.6;;;;;;;10.87;70.07813;942.8531;;;;
2021/11/10 11:31:30;;;;;;;6.8;4.2;;;;;;;11.03;69.13281;942.8645;;;;
2021/11/10 11:33:55;;;;;;;6.3;4;;;;;;;11.27;68.08496;942.7495;;;;
2021/11/10 11:36:21;;;;;;;5.4;3.3;;;;;;;11.49;65.65723;942.7631;;;;
2021/11/10 11:38:47;;;;;;;7.6;3.6;;;;;;;11.66;64.38965;942.8262;;;;
2021/11/10 11:41:16;;;;;;;4.9;3.1;;;;;;;11.75;64.08398;942.7308;;;;
2021/11/10 11:43:38;;;;;;;5.4;3.5;;;;;;;11.91;63.68262;942.7668;;;;
2021/11/10 11:46:06;;;;;;;3.7;2.9;;;;;;;11.97;62.74023;942.7467;;;;
2021/11/10 11:48:32;;;;;;;6.8;3.4;;;;;;;11.93;63.16016;942.633;;;;
2021/11/10 11:50:56;;;;;;;5.2;2.8;;;;;;;12.06;61.7002;942.6394;;;;
2021/11/10 11:53:21;;;;;;;6.7;2.9;;;;;;;12.17;61.60156;942.6805;;;;
2021/11/10 11:55:46;;;;;;;4.2;2.5;;;;;;;12.23;61.56445;942.671;;;;
2021/11/10 11:58:12;;;;;;;5.1;2.6;;;;;;;12.41;60.78711;942.7215;;;;
2021/11/10 12:00:37;;;;;;;5.2;2.7;;;;;;;12.55;60.24414;942.7478;;;;
2021/11/10 12:03:03;;;;;;;8.3;3.1;;;;;;;12.63;60.13086;942.7408;;;;
2021/11/10 12:05:27;;;;;;;9.4;3.2;;;;;;;12.61;61.50195;942.6788;;;;
2021/11/10 12:07:53;;;;;;;8.5;5.5;;;;;;;12.47;60.99023;942.7144;;;;
2021/11/10 12:10:18;;;;;;;6.6;4.5;;;;;;;12.37;61.77832;942.7819;;;;
2021/11/10 12:12:45;;;;;;;10.2;4.1;;;;;;;12.33;62.1748;942.7224;;;;
2021/11/10 12:15:10;;;;;;;6.5;3.6;;;;;;;12.28;61.92578;942.7609;;;;
2021/11/10 12:17:35;;;;;;;6.4;3.5;;;;;;;12.11;63.2666;942.8299;;;;
2021/11/10 12:20:05;;;;;;;8.7;3.5;;;;;;;11.94;64.99316;942.8038;;;;
2021/11/10 12:22:27;;;;;;;5.7;3.5;;;;;;;11.89;64.43652;942.82;;;;
2021/11/10 12:24:54;;;;;;;6.1;3.2;;;;;;;11.93;62.63281;942.7918;;;;
2021/11/10 12:27:19;;;;;;;5;3.1;;;;;;;11.9;63.00684;942.6757;;;;
2021/11/10 12:29:45;;;;;;;5.3;2.8;;;;;;;11.95;62.72754;942.6955;;;;
2021/11/10 12:32:10;;;;;;;6.5;3;;;;;;;11.91;63.13281;942.7173;;;;
2021/11/10 12:34:35;;;;;;;7.3;2.9;;;;;;;11.99;64.11914;942.4955;;;;
2021/11/10 12:37:02;;;;;;;9.1;3.3;;;;;;;12.3;62.58203;942.5878;;;;
2021/11/10 12:39:31;;;;;;;6.8;3.4;;;;;;;12.49;61.52148;942.5828;;;;
2021/11/10 12:42:01;;;;;;;16.5;5.4;;;;;;;12.63;63.18066;942.5867;;;;
2021/11/10 12:44:30;;;;;;;12.8;5.6;;;;;;;12.69;63.07422;942.5656;;;;
2021/11/10 12:46:55;;;;;;;7.2;3.3;;;;;;;12.83;62.36035;942.6588;;;;
2021/11/10 12:49:20;;;;;;;5.8;3;;;;;;;12.72;63.50391;942.6616;;;;
2021/11/10 12:51:45;;;;;;;7.2;3.1;;;;;;;12.73;63.90723;942.6058;;;;
2021/11/10 12:54:10;;;;;;;7.2;4.1;;;;;;;12.79;64.3291;942.6407;;;;
2021/11/10 12:56:37;;;;;;;8;4.8;;;;;;;12.48;65.28223;942.6674;;;;
2021/11/10 12:59:00;;;;;;;10.4;5.9;;;;;;;12.23;65.3125;942.663;;;;
2021/11/10 13:01:27;;;;;;;11.5;5.2;;;;;;;11.69;65.62012;942.584;;;;
2021/11/10 13:03:52;;;;;;;9.3;5.3;;;;;;;11.49;65.77148;942.5988;;;;
2021/11/10 13:06:22;;;;;;;9.4;4.4;;;;;;;11.2;67.35352;942.6001;;;;
2021/11/10 13:08:50;;;;;;;5.6;4.1;;;;;;;11.3;66.46484;942.5682;;;;
2021/11/10 13:11:08;;;;;;;9.2;4.2;;;;;;;11.33;65.88574;942.5503;;;;
2021/11/10 13:13:33;;;;;;;6.9;3.7;;;;;;;11.22;66.18945;942.5567;;;;
2021/11/10 13:15:59;;;;;;;6.9;4.1;;;;;;;11.1;67.45117;942.4838;;;;
2021/11/10 13:18:25;;;;;;;8.4;4.2;;;;;;;10.97;66.89551;942.4579;;;;
2021/11/10 13:20:50;;;;;;;7.9;3.6;;;;;;;10.95;67.67969;942.5228;;;;
2021/11/10 13:23:15;;;;;;;8.1;4;;;;;;;11;67.7666;942.4335;;;;
2021/11/10 13:25:41;;;;;;;6.5;3.8;;;;;;;11.06;67.9707;942.488;;;;
2021/11/10 13:28:06;;;;;;;9.1;4;;;;;;;11.08;68.44434;942.604;;;;
2021/11/10 13:30:31;;;;;;;5.9;3.7;;;;;;;11.06;68.24707;942.5742;;;;
2021/11/10 13:32:57;;;;;;;5.1;3.4;;;;;;;11.16;67.97559;942.6074;;;;
2021/11/10 13:35:23;;;;;;;8.8;3.7;;;;;;;11.22;66.86426;942.611;;;;
2021/11/10 13:37:49;;;;;;;6.9;4.1;;;;;;;11.34;67.17969;942.7026;;;;
2021/11/10 13:40:14;;;;;;;6.5;4;;;;;;;11.48;65.99902;942.7367;;;;
2021/11/10 13:42:41;;;;;;;8;4.3;;;;;;;11.55;64.99316;942.7639;;;;
2021/11/10 13:45:11;;;;;;;6.7;3.8;;;;;;;11.65;65.03125;942.7623;;;;
2021/11/10 13:47:37;;;;;;;5.9;3.5;;;;;;;11.63;65.10742;942.7366;;;;
2021/11/10 13:50:02;;;;;;;7.4;3.6;;;;;;;11.62;63.93848;942.7626;;;;
2021/11/10 13:52:31;;;;;;;6.4;3.7;;;;;;;11.47;64.15625;942.7181;;;;
2021/11/10 13:54:56;;;;;;;7.1;3.2;;;;;;;11.53;63.86719;942.8466;;;;
2021/11/10 13:57:21;;;;;;;5.1;3.3;;;;;;;11.17;65.51855;942.8148;;;;
2021/11/10 13:59:48;;;;;;;5.1;3.4;;;;;;;11.32;64.58008;942.6992;;;;
2021/11/10 14:02:13;;;;;;;4.8;3.1;;;;;;;11.44;63.63672;942.709;;;;
2021/11/10 14:04:38;;;;;;;3.5;3.1;;;;;;;11.54;63.52539;942.7758;;;;
2021/11/10 14:07:05;;;;;;;5.3;3.4;;;;;;;11.58;64.00195;942.7914;;;;
2021/11/10 14:09:31;;;;;;;4;3;;;;;;;11.55;63.13965;942.8438;;;;
2021/11/10 14:11:55;;;;;;;4.6;3;;;;;;;11.52;63.52344;942.7555;;;;
2021/11/10 14:14:20;;;;;;;4.8;3.3;;;;;;;11.42;64.46973;942.7925;;;;
2021/11/10 14:16:45;;;;;;;6.5;3.8;;;;;;;11.31;64.76074;942.8234;;;;
2021/11/10 14:19:10;;;;;;;6.2;3.3;;;;;;;11.17;64.76367;942.8458;;;;
2021/11/10 14:21:36;;;;;;;5;3.3;;;;;;;10.98;65.43262;942.8412;;;;
2021/11/10 14:24:01;;;;;;;4.4;3.2;;;;;;;11.02;65.74805;942.8652;;;;
2021/11/10 14:26:26;;;;;;;5.2;3.3;;;;;;;11.02;65.85059;942.8716;;;;
2021/11/10 14:28:51;;;;;;;6;3.4;;;;;;;10.93;65.06152;942.9003;;;;
2021/11/10 14:31:16;;;;;;;5.1;3.2;;;;;;;10.89;65.47754;942.8487;;;;
2021/11/10 14:33:42;;;;;;;11.6;4.1;;;;;;;10.84;66.94336;942.8558;;;;
2021/11/10 14:36:07;;;;;;;9.4;4;;;;;;;10.8;67.41602;942.7625;;;;
2021/11/10 14:38:31;;;;;;;10.2;4.1;;;;;;;10.8;68.27441;942.8494;;;;
2021/11/10 14:41:01;;;;;;;7.3;3.9;;;;;;;10.7;68.49805;942.8803;;;;
2021/11/10 14:43:24;;;;;;;5.6;3.7;;;;;;;10.61;67.51172;942.8228;;;;
2021/11/10 14:45:47;;;;;;;7.4;3.7;;;;;;;10.6;68.08105;942.88;;;;
2021/11/10 14:48:12;;;;;;;6.5;3.8;;;;;;;10.57;68.25977;942.8095;;;;
2021/11/10 14:50:39;;;;;;;12.3;5.1;;;;;;;10.52;68.9707;942.8898;;;;
2021/11/10 14:53:04;;;;;;;13.6;5.8;;;;;;;10.5;68.89941;942.8505;;;;
2021/11/10 14:55:31;;;;;;;15.6;6.1;;;;;;;10.47;68.76758;942.8491;;;;
2021/11/10 14:57:56;;;;;;;14.9;5.9;;;;;;;10.45;68.34277;942.7581;;;;
2021/11/10 15:00:25;;;;;;;17.7;8;;;;;;;10.34;69.11426;942.8586;;;;
2021/11/10 15:02:49;;;;;;;23.8;7.9;;;;;;;10.34;69.19434;942.9503;;;;
2021/11/10 15:05:15;;;;;;;20.2;8.7;;;;;;;10.37;69.17578;942.9514;;;;
2021/11/10 15:07:39;;;;;;;19;8.5;;;;;;;10.3;68.77637;942.9517;;;;
2021/11/10 15:10:04;;;;;;;25.9;9.4;;;;;;;10.28;69.60645;942.8663;;;;
2021/11/10 15:12:29;;;;;;;27.7;9.7;;;;;;;10.25;70.37793;942.8889;;;;
2021/11/10 15:14:56;;;;;;;17.6;8.7;;;;;;;10.27;71.48633;942.8828;;;;
2021/11/10 15:17:22;;;;;;;17;7.7;;;;;;;10.24;72.22461;942.8926;;;;
2021/11/10 15:19:48;;;;;;;19.2;7.9;;;;;;;10.21;72.62988;942.8973;;;;
2021/11/10 15:22:14;;;;;;;20.4;9.2;;;;;;;10.29;73.11133;942.8713;;;;
2021/11/10 15:24:39;;;;;;;25.8;8.3;;;;;;;10.11;74.51563;942.9548;;;;
2021/11/10 15:27:04;;;;;;;22.1;6.2;;;;;;;9.96;75.2793;942.9447;;;;
2021/11/10 15:29:29;;;;;;;19.2;7.4;;;;;;;9.93;75.18066;942.9583;;;;
2021/11/10 15:31:55;;;;;;;18.1;7.3;;;;;;;9.93;75.42188;942.9672;;;;
2021/11/10 15:34:23;;;;;;;15.7;6.8;;;;;;;9.97;76.15723;942.9606;;;;
2021/11/10 15:36:45;;;;;;;19.4;8;;;;;;;9.99;76.01367;942.9627;;;;
2021/11/10 15:39:10;;;;;;;16.5;7.2;;;;;;;9.93;75.79785;942.9322;;;;
2021/11/10 15:41:35;;;;;;;13.8;7.2;;;;;;;9.89;76.04199;942.8709;;;;
2021/11/10 15:44:03;;;;;;;18;6.9;;;;;;;9.9;76.00781;942.8847;;;;
2021/11/10 15:46:28;;;;;;;15.7;6.9;;;;;;;9.96;76.14648;942.8031;;;;
2021/11/10 15:48:54;;;;;;;17.5;6;;;;;;;9.82;76.73633;942.8816;;;;
2021/11/10 15:51:19;;;;;;;13.2;5.9;;;;;;;9.72;76.83203;942.8664;;;;
2021/11/10 15:53:44;;;;;;;27.1;13.7;;;;;;;9.59;77.45898;942.8653;;;;
2021/11/10 15:56:09;;;;;;;18;10.5;;;;;;;9.51;77.98047;942.8787;;;;
2021/11/10 15:58:35;;;;;;;23.3;12.9;;;;;;;9.48;78.13281;942.8828;;;;
2021/11/10 16:01:00;;;;;;;30;13.5;;;;;;;9.5;77.96582;942.872;;;;
2021/11/10 16:03:27;;;;;;;30.3;15;;;;;;;9.51;77.76367;942.769;;;;
2021/11/10 16:05:50;;;;;;;20.2;12.4;;;;;;;9.51;77.92285;942.7722;;;;
2021/11/10 16:08:18;;;;;;;25.6;13;;;;;;;9.39;78.40137;942.802;;;;
2021/11/10 16:10:43;;;;;;;59.4;28.1;;;;;;;9.28;79.60156;942.829;;;;
2021/11/10 16:13:09;;;;;;;49.5;25.7;;;;;;;9.23;79.46582;942.8128;;;;
2021/11/10 16:15:34;;;;;;;40.5;22.2;;;;;;;9.13;79.53906;942.7421;;;;
2021/11/10 16:17:59;;;;;;;23.3;14.6;;;;;;;8.89;80.05176;942.7874;;;;
2021/11/10 16:20:24;;;;;;;23.4;13.3;;;;;;;8.97;79.93164;942.7192;;;;
2021/11/10 16:22:51;;;;;;;33;18.8;;;;;;;9.02;79.74707;942.8199;;;;
2021/11/10 16:25:16;;;;;;;24.4;14.6;;;;;;;9.07;79.69824;942.7217;;;;
2021/11/10 16:27:47;;;;;;;28.7;15.2;;;;;;;9.1;79.63672;942.7137;;;;
2021/11/10 16:30:09;;;;;;;44.4;22.1;;;;;;;9.09;79.67676;942.641;;;;
2021/11/10 16:33:17;;;;;;;41.5;21.9;;;;;;;9.04;79.71387;942.6415;;;;
2021/11/10 16:34:58;;;;;;;44.6;22.5;;;;;;;8.94;80.27734;942.6082;;;;
2021/11/10 16:37:22;;;;;;;47.9;25.3;;;;;;;8.97;80.3623;942.6476;;;;
2021/11/10 16:39:47;;;;;;;45;23.7;;;;;;;8.99;80.48926;942.5717;;;;
2021/11/10 16:42:12;;;;;;;37.8;19.7;;;;;;;8.89;81.15332;942.7037;;;;
2021/11/10 16:44:37;;;;;;;33.9;18.5;;;;;;;8.93;81.02539;942.7572;;;;
2021/11/10 16:47:02;;;;;;;23.2;13;;;;;;;8.8;82.29785;942.7253;;;;
2021/11/10 16:49:28;;;;;;;23.3;12.1;;;;;;;8.8;82.51367;942.6547;;;;
2021/11/10 16:51:53;;;;;;;20.6;11.4;;;;;;;8.82;82.71191;942.6951;;;;
2021/11/10 16:54:18;;;;;;;20.2;10.6;;;;;;;8.88;82.56348;942.7361;;;;
2021/11/10 16:56:44;;;;;;;20.6;10.9;;;;;;;8.89;82.2334;942.7704;;;;
2021/11/10 16:59:10;;;;;;;24.6;12.2;;;;;;;8.72;83.47754;942.6775;;;;
2021/11/10 17:01:39;;;;;;;24.8;12.6;;;;;;;8.72;83.6709;942.8195;;;;
2021/11/10 17:04:03;;;;;;;20.9;12;;;;;;;8.78;83.4082;942.8059;;;;
2021/11/10 17:06:26;;;;;;;19.4;12.7;;;;;;;8.73;83.70508;942.853;;;;
2021/11/10 17:08:54;;;;;;;17.1;9.6;;;;;;;8.64;84.18945;942.7232;;;;
2021/11/10 17:11:17;;;;;;;16.5;10;;;;;;;8.64;84.07617;942.7439;;;;
2021/11/10 17:13:43;;;;;;;21.9;11.1;;;;;;;8.58;84.30078;942.8222;;;;
2021/11/10 17:16:08;;;;;;;23.9;13.9;;;;;;;8.51;84.82227;942.8959;;;;
2021/11/10 17:18:34;;;;;;;26;13.7;;;;;;;8.44;85.52539;942.9586;;;;
2021/11/10 17:20:59;;;;;;;22.5;13;;;;;;;8.29;86.57422;942.9669;;;;
2021/11/10 17:23:25;;;;;;;20.5;12.1;;;;;;;8.31;86.48633;943.0173;;;;
2021/11/10 17:25:51;;;;;;;19.7;10.8;;;;;;;8.18;87.65332;942.9797;;;;
2021/11/10 17:28:16;;;;;;;17.7;10.8;;;;;;;8.14;88.08691;943.0095;;;;
2021/11/10 17:30:41;;;;;;;23.4;13.2;;;;;;;8.16;88.00195;942.9213;;;;
2021/11/10 17:33:12;;;;;;;26;15.8;;;;;;;8.18;88.46973;942.963;;;;
2021/11/10 17:35:32;;;;;;;23.1;13.5;;;;;;;8.23;87.66309;942.8845;;;;
2021/11/10 17:37:58;;;;;;;24.6;14.5;;;;;;;8.26;86.88672;942.8892;;;;
2021/11/10 17:40:23;;;;;;;19.3;12.5;;;;;;;8.4;86.52734;942.897;;;;
2021/11/10 17:42:50;;;;;;;21.6;12.8;;;;;;;8.17;87.6748;942.8215;;;;
2021/11/10 17:45:15;;;;;;;21.8;13.2;;;;;;;8.2;87.26953;942.8578;;;;
2021/11/10 17:47:41;;;;;;;20;12.1;;;;;;;8.18;86.9043;942.8892;;;;
2021/11/10 17:50:06;;;;;;;20.5;12.5;;;;;;;8.19;86.03027;942.9164;;;;
2021/11/10 17:52:31;;;;;;;24.1;14.3;;;;;;;8.14;85.50977;942.8801;;;;
2021/11/10 17:54:56;;;;;;;24.9;14.4;;;;;;;8.07;86.1543;942.7395;;;;
2021/11/10 17:57:22;;;;;;;27.4;16.6;;;;;;;8.02;87.5752;942.8519;;;;
2021/11/10 17:59:47;;;;;;;30.4;17.2;;;;;;;7.83;88.60352;942.7941;;;;
2021/11/10 18:02:12;;;;;;;32.5;18.7;;;;;;;7.8;89.08301;942.7698;;;;
2021/11/10 18:04:39;;;;;;;36.3;21.6;;;;;;;7.74;89.69629;942.7399;;;;
2021/11/10 18:07:05;;;;;;;37.1;22.3;;;;;;;7.7;89.8584;942.6992;;;;
2021/11/10 18:09:30;;;;;;;35.4;20;;;;;;;7.73;89.51074;942.6174;;;;
2021/11/10 18:11:55;;;;;;;32.4;19.6;;;;;;;7.75;89.24414;942.6244;;;;
2021/11/10 18:14:21;;;;;;;25.9;18.2;;;;;;;7.58;90.04785;942.671;;;;
2021/11/10 18:16:46;;;;;;;32.3;20.4;;;;;;;7.58;90.19531;942.6339;;;;
2021/11/10 18:19:13;;;;;;;36.9;21.3;;;;;;;7.41;91.33789;942.5759;;;;
2021/11/10 18:21:37;;;;;;;32.6;20.1;;;;;;;7.32;93.03027;942.6094;;;;
2021/11/10 18:24:03;;;;;;;31.7;18.1;;;;;;;7.36;92.7334;942.5997;;;;
2021/11/10 18:26:28;;;;;;;31.1;18;;;;;;;7.43;92.22559;942.5645;;;;
2021/11/10 18:28:54;;;;;;;28.5;17.2;;;;;;;7.35;92.33301;942.5936;;;;
2021/11/10 18:31:20;;;;;;;29.6;16.9;;;;;;;7.16;93.69922;942.6229;;;;
2021/11/10 18:33:45;;;;;;;32.3;18.8;;;;;;;7.15;94.50195;942.5237;;;;
2021/11/10 18:36:12;;;;;;;28.6;17.7;;;;;;;7.25;94.21582;942.4983;;;;
2021/11/10 18:38:36;;;;;;;27.3;16.7;;;;;;;7.21;94.02441;942.4697;;;;
2021/11/10 18:41:02;;;;;;;22;13.8;;;;;;;7.21;95.03223;942.465;;;;
2021/11/10 18:43:26;;;;;;;22.2;13.9;;;;;;;7.27;94.68555;942.4846;;;;
2021/11/10 18:45:52;;;;;;;30.9;17.6;;;;;;;7.32;94.0957;942.5017;;;;
2021/11/10 18:48:22;;;;;;;25.4;16.1;;;;;;;7.23;94.43848;942.4493;;;;
2021/11/10 18:50:46;;;;;;;22.6;14.3;;;;;;;7.28;95.46973;942.4905;;;;
2021/11/10 18:53:14;;;;;;;22.4;14.6;;;;;;;7.4;94.2832;942.3788;;;;
2021/11/10 18:55:39;;;;;;;20.1;13.5;;;;;;;7.45;93.73926;942.3717;;;;
2021/11/10 18:58:05;;;;;;;18;12.2;;;;;;;7.44;93.72461;942.4238;;;;
2021/11/10 19:00:32;;;;;;;20.5;12.8;;;;;;;7.46;94.02344;942.4402;;;;
2021/11/10 19:03:01;;;;;;;20;12.5;;;;;;;7.48;93.3584;942.3909;;;;
2021/11/10 19:05:23;;;;;;;20.3;12.8;;;;;;;7.52;93.28809;942.4014;;;;
2021/11/10 19:07:57;;;;;;;23.1;13.8;;;;;;;7.52;92.65332;942.4061;;;;
2021/11/10 19:10:30;;;;;;;24.5;14.6;;;;;;;7.57;92.51563;942.4819;;;;
2021/11/10 19:13:05;;;;;;;27;15.7;;;;;;;7.63;91.82617;942.5577;;;;
2021/11/10 19:15:21;;;;;;;23.3;15.1;;;;;;;7.63;91.07813;942.5521;;;;
2021/11/10 19:18:01;;;;;;;25.8;15.2;;;;;;;7.74;90.375;942.5408;;;;
2021/11/10 19:20:13;;;;;;;29.1;18.9;;;;;;;7.69;89.00391;942.5807;;;;
2021/11/10 19:22:28;;;;;;;36.9;22.4;;;;;;;7.73;88.58105;942.5984;;;;
2021/11/10 19:24:53;;;;;;;26.1;16.8;;;;;;;7.55;88.9873;942.6646;;;;
2021/11/10 19:27:19;;;;;;;22.6;16.2;;;;;;;7.43;89.04102;942.6334;;;;
2021/11/10 19:29:44;;;;;;;19.9;13.1;;;;;;;7.39;89.30371;942.6534;;;;
2021/11/10 19:32:09;;;;;;;20.2;10.9;;;;;;;7.29;88.94434;942.7131;;;;
2021/11/10 19:34:34;;;;;;;15.3;10.9;;;;;;;7.16;87.21777;942.6458;;;;
2021/11/10 19:36:59;;;;;;;15.8;10.8;;;;;;;7.08;86.54395;942.6917;;;;
2021/11/10 19:39:24;;;;;;;20.9;13.2;;;;;;;6.89;87.58105;942.7277;;;;
2021/11/10 19:41:49;;;;;;;27.5;18.9;;;;;;;6.81;89.08301;942.7301;;;;
2021/11/10 19:44:14;;;;;;;26.8;17.6;;;;;;;6.82;88.9375;942.7859;;;;
2021/11/10 19:46:42;;;;;;;26.8;17.3;;;;;;;6.76;88.99316;942.7234;;;;